createdAt,value
2022-10-19T00:01:21.909Z,98705.09
2022-10-19T00:03:53.933Z,98702.66
2022-10-19T00:06:29.842Z,98701.47
2022-10-19T00:08:59.995Z,98696.41
2022-10-19T00:11:29.272Z,98695.19
2022-10-19T00:13:59.342Z,98693.97
2022-10-19T00:16:28.961Z,98695.13
2022-10-19T00:19:00.493Z,98697.78
2022-10-19T00:21:27.467Z,98693.91
2022-10-19T00:23:54.419Z,98688.06
2022-10-19T00:26:21.109Z,98692.78
2022-10-19T00:28:47.814Z,98698.97
2022-10-19T00:31:16.584Z,98687.78
2022-10-19T00:33:49.283Z,98693.22
2022-10-19T00:36:25.579Z,98687.06
2022-10-19T00:39:01.753Z,98689.78
2022-10-19T00:41:31.876Z,98684.75
2022-10-19T00:44:14.316Z,98688.63
2022-10-19T00:46:46.538Z,98684.41
2022-10-19T00:49:19.536Z,98682.06
2022-10-19T00:51:52.634Z,98682.50
2022-10-19T00:54:25.832Z,98689.47
2022-10-19T00:56:54.997Z,98681.03
2022-10-19T00:59:25.106Z,98687.19
2022-10-19T01:01:52.878Z,98673.69
2022-10-19T01:04:24.743Z,98674.91
2022-10-19T01:06:52.237Z,98666.03
2022-10-19T01:09:18.919Z,98668.06
2022-10-19T01:12:12.028Z,98676.22
2022-10-19T01:15:05.337Z,98673.53
2022-10-19T01:17:37.761Z,98662.31
2022-10-19T01:20:19.209Z,98667.81
2022-10-19T01:23:00.071Z,98685.69
2022-10-19T01:25:52.375Z,98681.13
2022-10-19T01:28:37.248Z,98679.66
2022-10-19T01:31:12.859Z,98678.16
2022-10-19T01:33:39.264Z,98684.03
2022-10-19T01:36:16.911Z,98682.09
2022-10-19T01:38:48.642Z,98677.44
2022-10-19T01:41:23.308Z,98668.94
2022-10-19T01:43:58.554Z,98675.88
2022-10-19T01:46:43.415Z,98678.97
2022-10-19T01:49:21.934Z,98674.69
2022-10-19T01:51:56.197Z,98678.13
2022-10-19T01:54:26.313Z,98670.34
2022-10-19T01:57:01.903Z,98674.25
2022-10-19T01:59:30.189Z,98675.09
2022-10-19T02:01:58.063Z,98667.69
2022-10-19T02:04:32.045Z,98670.81
2022-10-19T02:06:59.289Z,98670.03
2022-10-19T02:09:25.953Z,98668.13
2022-10-19T02:11:58.771Z,98661.53
2022-10-19T02:14:32.085Z,98656.09
2022-10-19T02:17:24.232Z,98654.97
2022-10-19T02:19:53.749Z,98651.84
2022-10-19T02:22:22.592Z,98651.84
2022-10-19T02:24:51.397Z,98642.13
2022-10-19T02:27:19.051Z,98644.03
2022-10-19T02:29:45.599Z,98633.56
2022-10-19T02:32:14.215Z,98634.72
2022-10-19T02:34:41.723Z,98632.44
2022-10-19T02:37:08.533Z,98620.72
2022-10-19T02:39:37.527Z,98618.03
2022-10-19T02:42:11.288Z,98611.38
2022-10-19T02:45:04.174Z,98617.63
2022-10-19T02:47:38.673Z,98616.78
2022-10-19T02:50:08.107Z,98615.63
2022-10-19T02:52:37.784Z,98609.00
2022-10-19T02:55:05.684Z,98624.47
2022-10-19T02:57:32.874Z,98621.75
2022-10-19T02:59:59.927Z,98619.78
2022-10-19T03:02:26.912Z,98618.94
2022-10-19T03:04:58.001Z,98608.78
2022-10-19T03:07:24.670Z,98614.84
2022-10-19T03:09:51.146Z,98606.25
2022-10-19T03:12:20.316Z,98610.00
2022-10-19T03:14:46.927Z,98604.19
2022-10-19T03:17:13.729Z,98613.16
2022-10-19T03:19:40.476Z,98607.78
2022-10-19T03:22:07.323Z,98607.44
2022-10-19T03:24:34.213Z,98611.78
2022-10-19T03:27:00.810Z,98608.28
2022-10-19T03:29:27.334Z,98604.00
2022-10-19T03:31:53.867Z,98602.84
2022-10-19T03:34:28.470Z,98604.78
2022-10-19T03:36:56.633Z,98606.28
2022-10-19T03:39:23.125Z,98604.78
2022-10-19T03:41:49.809Z,98601.34
2022-10-19T03:44:16.849Z,98604.50
2022-10-19T03:46:46.707Z,98606.41
2022-10-19T03:49:15.178Z,98612.63
2022-10-19T03:51:41.957Z,98606.41
2022-10-19T03:54:14.798Z,98601.41
2022-10-19T03:56:43.179Z,98599.13
2022-10-19T03:59:13.164Z,98590.81
2022-10-19T04:01:42.972Z,98598.63
2022-10-19T04:04:16.013Z,98599.00
2022-10-19T04:06:44.967Z,98600.13
2022-10-19T04:09:14.068Z,98598.16
2022-10-19T04:11:45.655Z,98597.75
2022-10-19T04:14:26.778Z,98591.13
2022-10-19T04:17:02.339Z,98591.59
2022-10-19T04:19:29.201Z,98594.59
2022-10-19T04:21:55.968Z,98589.19
2022-10-19T04:24:24.597Z,98586.91
2022-10-19T04:26:53.830Z,98591.47
2022-10-19T04:29:24.961Z,98599.84
2022-10-19T04:31:54.569Z,98598.66
2022-10-19T04:34:24.546Z,98606.78
2022-10-19T04:36:51.122Z,98599.75
2022-10-19T04:39:19.533Z,98596.94
2022-10-19T04:41:46.010Z,98593.47
2022-10-19T04:44:15.546Z,98597.97
2022-10-19T04:46:42.356Z,98585.59
2022-10-19T04:49:08.859Z,98587.13
2022-10-19T04:51:35.368Z,98587.84
2022-10-19T04:54:08.975Z,98577.00
2022-10-19T04:56:35.486Z,98583.28
2022-10-19T04:59:01.982Z,98587.97
2022-10-19T05:01:30.504Z,98582.16
2022-10-19T05:03:59.485Z,98579.81
2022-10-19T05:06:26.545Z,98579.34
2022-10-19T05:08:53.488Z,98573.53
2022-10-19T05:11:20.844Z,98571.59
2022-10-19T05:13:48.333Z,98582.03
2022-10-19T05:16:20.337Z,98567.69
2022-10-19T05:18:48.967Z,98572.91
2022-10-19T05:21:20.697Z,98577.53
2022-10-19T05:23:49.415Z,98574.41
2022-10-19T05:26:18.946Z,98577.03
2022-10-19T05:28:59.629Z,98564.59
2022-10-19T05:31:29.214Z,98575.00
2022-10-19T05:33:56.754Z,98574.22
2022-10-19T05:36:27.809Z,98573.50
2022-10-19T05:38:57.238Z,98577.78
2022-10-19T05:41:34.635Z,98576.16
2022-10-19T05:44:02.242Z,98575.00
2022-10-19T05:46:31.796Z,98571.09
2022-10-19T05:49:01.385Z,98569.44
2022-10-19T05:51:28.412Z,98572.13
2022-10-19T05:53:56.235Z,98576.06
2022-10-19T05:56:27.305Z,98569.44
2022-10-19T05:58:56.589Z,98569.88
2022-10-19T06:01:23.101Z,98573.34
2022-10-19T06:03:54.819Z,98569.03
2022-10-19T06:06:21.486Z,98566.66
2022-10-19T06:08:48.845Z,98564.81
2022-10-19T06:11:23.787Z,98564.09
2022-10-19T06:13:51.708Z,98554.84
2022-10-19T06:16:19.426Z,98562.59
2022-10-19T06:18:51.118Z,98565.66
2022-10-19T06:21:22.340Z,98567.22
2022-10-19T06:23:55.644Z,98573.06
2022-10-19T06:26:22.532Z,98572.34
2022-10-19T06:28:49.872Z,98573.63
2022-10-19T06:31:17.276Z,98571.72
2022-10-19T06:33:48.531Z,98570.69
2022-10-19T06:36:25.222Z,98561.13
2022-10-19T06:38:53.221Z,98565.88
2022-10-19T06:41:20.908Z,98569.50
2022-10-19T06:44:00.259Z,98578.09
2022-10-19T06:46:27.419Z,98570.41
2022-10-19T06:48:56.677Z,98573.66
2022-10-19T06:51:27.204Z,98582.91
2022-10-19T06:53:57.213Z,98582.00
2022-10-19T06:56:28.039Z,98574.00
2022-10-19T06:59:01.812Z,98581.81
2022-10-19T07:01:28.629Z,98578.47
2022-10-19T07:03:55.407Z,98567.03
2022-10-19T07:06:22.652Z,98569.94
2022-10-19T07:08:49.516Z,98574.69
2022-10-19T07:11:22.362Z,98577.78
2022-10-19T07:13:49.200Z,98577.44
2022-10-19T07:16:21.072Z,98577.53
2022-10-19T07:18:49.914Z,98570.06
2022-10-19T07:21:17.566Z,98573.03
2022-10-19T07:23:47.432Z,98573.16
2022-10-19T07:26:15.521Z,98573.63
2022-10-19T07:28:46.789Z,98573.22
2022-10-19T07:31:17.763Z,98576.97
2022-10-19T07:33:44.878Z,98582.56
2022-10-19T07:36:15.616Z,98575.66
2022-10-19T07:38:42.160Z,98576.88
2022-10-19T07:41:14.408Z,98578.22
2022-10-19T07:43:44.307Z,98577.31
2022-10-19T07:46:13.986Z,98577.41
2022-10-19T07:48:40.748Z,98570.09
2022-10-19T07:51:10.162Z,98574.56
2022-10-19T07:53:37.870Z,98563.41
2022-10-19T07:56:12.669Z,98567.44
2022-10-19T07:58:39.890Z,98562.34
2022-10-19T08:06:59.280Z,98558.75
2022-10-19T08:09:52.294Z,98564.53
2022-10-19T08:12:19.541Z,98562.31
2022-10-19T08:14:52.238Z,98560.69
2022-10-19T08:17:18.864Z,98559.97
2022-10-19T08:19:46.281Z,98559.28
2022-10-19T08:22:14.708Z,98559.13
2022-10-19T08:24:41.207Z,98552.53
2022-10-19T08:27:08.631Z,98565.78
2022-10-19T08:29:37.467Z,98559.75
2022-10-19T08:32:04.011Z,98558.09
2022-10-19T08:34:30.568Z,98561.47
2022-10-19T08:37:14.747Z,98560.59
2022-10-19T08:39:52.487Z,98559.53
2022-10-19T08:42:27.730Z,98557.38
2022-10-19T08:45:14.491Z,98567.31
2022-10-19T08:47:57.733Z,98562.50
2022-10-19T08:50:29.454Z,98549.94
2022-10-19T08:53:03.721Z,98555.69
2022-10-19T08:55:41.909Z,98550.56
2022-10-19T08:58:29.411Z,98549.03
2022-10-19T09:01:04.369Z,98547.59
2022-10-19T09:03:56.619Z,98556.78
2022-10-19T09:06:31.978Z,98548.44
2022-10-19T09:08:59.399Z,98553.69
2022-10-19T09:11:34.787Z,98534.88
2022-10-19T09:14:18.778Z,98536.13
2022-10-19T09:16:46.394Z,98529.63
2022-10-19T09:19:28.173Z,98528.19
2022-10-19T09:22:10.617Z,98537.66
2022-10-19T09:24:44.148Z,98522.63
2022-10-19T09:27:20.645Z,98530.97
2022-10-19T09:29:59.172Z,98527.25
2022-10-19T09:32:32.851Z,98525.81
2022-10-19T09:35:02.586Z,98526.84
2022-10-19T09:37:31.757Z,98522.47
2022-10-19T09:40:00.126Z,98525.63
2022-10-19T09:42:30.427Z,98517.84
2022-10-19T09:44:59.165Z,98530.44
2022-10-19T09:47:46.368Z,98518.50
2022-10-19T09:50:24.523Z,98523.28
2022-10-19T09:53:03.837Z,98504.38
2022-10-19T09:55:33.962Z,98512.53
2022-10-19T09:58:23.751Z,98513.50
2022-10-19T10:00:55.870Z,98509.44
2022-10-19T10:03:40.881Z,98504.72
2022-10-19T10:06:10.361Z,98509.81
2022-10-19T10:08:47.115Z,98504.44
2022-10-19T10:11:25.251Z,98511.75
2022-10-19T10:13:55.243Z,98512.44
2022-10-19T10:16:24.136Z,98505.44
2022-10-19T10:18:58.583Z,98506.19
2022-10-19T10:21:34.586Z,98499.56
2022-10-19T10:24:11.830Z,98501.16
2022-10-19T10:26:46.577Z,98496.19
2022-10-19T10:29:32.912Z,98488.72
2022-10-19T10:32:06.827Z,98479.25
2022-10-19T10:35:01.028Z,98484.78
2022-10-19T10:37:39.298Z,98485.66
2022-10-19T10:40:08.211Z,98476.84
2022-10-19T10:42:41.655Z,98470.22
2022-10-19T10:45:23.045Z,98467.97
2022-10-19T10:47:50.148Z,98467.84
2022-10-19T10:50:19.490Z,98468.09
2022-10-19T10:53:04.724Z,98461.06
2022-10-19T10:55:32.238Z,98461.88
2022-10-19T10:58:25.450Z,98463.28
2022-10-19T11:00:55.047Z,98447.44
2022-10-19T11:03:36.785Z,98436.00
2022-10-19T11:06:09.158Z,98450.31
2022-10-19T11:09:01.240Z,98450.06
2022-10-19T11:11:41.873Z,98437.78
2022-10-19T11:14:24.461Z,98440.97
2022-10-19T11:16:54.198Z,98442.25
2022-10-19T11:19:26.220Z,98439.34
2022-10-19T11:22:28.553Z,98432.69
2022-10-19T11:25:18.159Z,98427.97
2022-10-19T11:27:55.111Z,98433.34
2022-10-19T11:30:29.544Z,98422.94
2022-10-19T11:33:11.595Z,98412.41
2022-10-19T11:35:53.010Z,98408.59
2022-10-19T11:38:30.591Z,98401.66
2022-10-19T11:41:31.247Z,98392.63
2022-10-19T11:44:19.019Z,98398.41
2022-10-19T11:46:45.738Z,98377.94
2022-10-19T11:49:20.920Z,98387.00
2022-10-19T11:52:01.911Z,98377.66
2022-10-19T11:54:37.345Z,98374.78
2022-10-19T11:57:15.300Z,98365.75
2022-10-19T12:00:14.006Z,98355.59
2022-10-19T12:02:51.593Z,98356.59
2022-10-19T12:05:36.040Z,98356.25
2022-10-19T12:08:24.097Z,98341.34
2022-10-19T12:10:55.681Z,98338.94
2022-10-19T12:13:30.061Z,98334.88
2022-10-19T12:15:59.487Z,98341.28
2022-10-19T12:19:00.238Z,98340.22
2022-10-19T12:21:31.186Z,98336.38
2022-10-19T12:24:00.487Z,98330.59
2022-10-19T12:26:34.287Z,98328.47
2022-10-19T12:29:06.125Z,98322.28
2022-10-19T12:31:37.510Z,98314.38
2022-10-19T12:34:20.590Z,98316.97
2022-10-19T12:36:53.481Z,98297.91
2022-10-19T12:39:24.923Z,98299.97
2022-10-19T12:42:14.118Z,98294.13
2022-10-19T12:44:59.073Z,98288.03
2022-10-19T12:47:30.095Z,98285.47
2022-10-19T12:49:57.369Z,98280.50
2022-10-19T12:52:54.487Z,98282.84
2022-10-19T12:55:34.823Z,98276.28
2022-10-19T12:58:20.170Z,98278.72
2022-10-19T13:00:59.550Z,98270.31
2022-10-19T13:03:34.522Z,98277.75
2022-10-19T13:06:08.682Z,98272.00
2022-10-19T13:08:43.591Z,98275.69
2022-10-19T13:11:17.752Z,98270.00
2022-10-19T13:13:56.742Z,98264.97
2022-10-19T13:16:29.454Z,98275.22
2022-10-19T13:19:10.491Z,98267.88
2022-10-19T13:21:45.886Z,98257.44
2022-10-19T13:24:26.453Z,98257.28
2022-10-19T13:27:23.484Z,98253.28
2022-10-19T13:29:51.863Z,98245.28
2022-10-19T13:32:33.779Z,98248.94
2022-10-19T13:35:27.475Z,98254.84
2022-10-19T13:38:15.432Z,98253.59
2022-10-19T13:40:48.043Z,98249.94
2022-10-19T13:43:24.484Z,98239.19
2022-10-19T13:46:35.289Z,98246.16
2022-10-19T13:49:02.149Z,98249.59
2022-10-19T13:51:35.725Z,98252.91
2022-10-19T13:54:24.145Z,98237.91
2022-10-19T13:56:50.589Z,98246.00
2022-10-19T13:59:43.536Z,98251.00
2022-10-19T14:02:50.954Z,98239.38
2022-10-19T14:05:29.623Z,98232.03
2022-10-19T14:07:58.817Z,98227.00
2022-10-19T14:10:32.930Z,98221.19
2022-10-19T14:13:08.565Z,98220.41
2022-10-19T14:15:35.548Z,98237.38
2022-10-19T14:18:03.841Z,98236.19
2022-10-19T14:20:35.184Z,98243.41
2022-10-19T14:23:25.109Z,98234.34
2022-10-19T14:26:05.490Z,98233.44
2022-10-19T14:28:33.444Z,98238.28
2022-10-19T14:31:04.671Z,98233.28
2022-10-19T14:33:38.303Z,98236.13
2022-10-19T14:36:07.898Z,98230.28
2022-10-19T14:38:42.161Z,98229.03
2022-10-19T14:41:20.809Z,98222.75
2022-10-19T14:43:49.490Z,98224.78
2022-10-19T14:46:16.753Z,98222.28
2022-10-19T14:48:48.761Z,98228.34
2022-10-19T14:51:43.439Z,98215.13
2022-10-19T14:54:33.135Z,98225.44
2022-10-19T14:57:16.248Z,98235.25
2022-10-19T14:59:53.106Z,98233.03
2022-10-19T15:02:40.161Z,98219.38
2022-10-19T15:05:18.110Z,98232.63
2022-10-19T15:07:44.977Z,98223.44
2022-10-19T15:10:21.686Z,98225.06
2022-10-19T15:12:53.473Z,98223.44
2022-10-19T15:15:32.076Z,98228.03
2022-10-19T15:18:13.167Z,98218.38
2022-10-19T15:20:54.930Z,98217.19
2022-10-19T15:23:37.492Z,98216.00
2022-10-19T15:26:22.119Z,98207.50
2022-10-19T15:28:49.740Z,98202.56
2022-10-19T15:31:29.798Z,98197.50
2022-10-19T15:34:00.696Z,98188.69
2022-10-19T15:36:29.483Z,98194.28
2022-10-19T15:39:11.167Z,98183.91
2022-10-19T15:41:45.374Z,98183.31
2022-10-19T15:44:32.491Z,98195.91
2022-10-19T15:47:20.402Z,98204.22
2022-10-19T15:50:01.369Z,98208.34
2022-10-19T15:52:32.117Z,98215.50
2022-10-19T15:55:00.315Z,98221.06
2022-10-19T15:57:36.744Z,98209.44
2022-10-19T16:00:15.752Z,98203.66
2022-10-19T16:02:42.422Z,98195.56
2022-10-19T16:05:11.540Z,98196.03
2022-10-19T16:07:40.118Z,98186.38
2022-10-19T16:10:10.407Z,98190.38
2022-10-19T16:12:36.882Z,98196.69
2022-10-19T16:15:07.102Z,98193.25
2022-10-19T16:17:34.043Z,98187.47
2022-10-19T16:20:00.628Z,98192.25
2022-10-19T16:22:27.117Z,98185.66
2022-10-19T16:24:55.432Z,98189.22
2022-10-19T16:27:22.157Z,98180.34
2022-10-19T16:29:48.648Z,98185.06
2022-10-19T16:32:15.428Z,98173.44
2022-10-19T16:34:41.874Z,98182.81
2022-10-19T16:37:12.120Z,98172.66
2022-10-19T16:39:47.235Z,98182.06
2022-10-19T16:42:13.865Z,98186.78
2022-10-19T16:44:40.326Z,98193.06
2022-10-19T16:47:06.996Z,98188.78
2022-10-19T16:49:33.475Z,98187.31
2022-10-19T16:52:02.328Z,98182.66
2022-10-19T16:54:34.512Z,98194.00
2022-10-19T16:57:02.903Z,98192.47
2022-10-19T16:59:32.387Z,98197.16
2022-10-19T17:01:59.097Z,98204.19
2022-10-19T17:04:26.134Z,98214.75
2022-10-19T17:06:52.938Z,98214.75
2022-10-19T17:12:08.484Z,98202.31
2022-10-19T17:14:35.771Z,98203.88
2022-10-19T17:17:02.484Z,98200.75
2022-10-19T17:19:29.009Z,98203.06
2022-10-19T17:21:57.707Z,98202.31
2022-10-19T17:24:24.207Z,98212.41
2022-10-19T17:26:52.302Z,98204.59
2022-10-19T17:29:24.249Z,98216.25
2022-10-19T17:31:51.497Z,98219.38
2022-10-19T17:34:18.418Z,98219.75
2022-10-19T17:36:46.539Z,98228.75
2022-10-19T17:39:18.969Z,98219.44
2022-10-19T17:41:46.884Z,98223.31
2022-10-19T17:44:15.683Z,98221.03
2022-10-19T17:46:42.791Z,98224.94
2022-10-19T17:49:09.913Z,98226.50
2022-10-19T17:51:37.696Z,98231.91
2022-10-19T17:54:11.240Z,98231.53
2022-10-19T17:56:39.502Z,98232.31
2022-10-19T17:59:07.969Z,98231.09
2022-10-19T18:01:35.543Z,98227.19
2022-10-19T18:04:02.258Z,98222.06
2022-10-19T18:06:31.837Z,98219.75
2022-10-19T18:08:59.813Z,98216.22
2022-10-19T18:11:36.260Z,98211.91
2022-10-19T18:14:03.894Z,98206.06
2022-10-19T18:16:47.406Z,98218.13
2022-10-19T18:19:16.161Z,98219.28
2022-10-19T18:21:45.064Z,98220.03
2022-10-19T18:24:21.836Z,98216.50
2022-10-19T18:26:50.453Z,98213.72
2022-10-19T18:29:20.516Z,98205.50
2022-10-19T18:31:54.423Z,98213.63
2022-10-19T18:34:24.495Z,98205.81
2022-10-19T18:36:51.496Z,98205.44
2022-10-19T18:39:19.170Z,98211.25
2022-10-19T18:41:45.882Z,98214.72
2022-10-19T18:44:14.791Z,98216.25
2022-10-19T18:46:41.675Z,98206.53
2022-10-19T18:49:10.518Z,98218.22
2022-10-19T18:51:37.129Z,98214.66
2022-10-19T18:54:04.429Z,98207.66
2022-10-19T18:56:33.350Z,98205.28
2022-10-19T18:59:02.481Z,98205.66
2022-10-19T19:01:31.568Z,98204.91
2022-10-19T19:04:04.358Z,98198.28
2022-10-19T19:06:31.694Z,98201.00
2022-10-19T19:09:02.420Z,98204.91
2022-10-19T19:11:34.262Z,98205.69
2022-10-19T19:14:07.038Z,98206.47
2022-10-19T19:16:36.738Z,98204.50
2022-10-19T19:19:04.262Z,98202.53
2022-10-19T19:21:34.497Z,98193.97
2022-10-19T19:24:03.948Z,98188.88
2022-10-19T19:26:33.847Z,98187.72
2022-10-19T19:29:03.514Z,98175.66
2022-10-19T19:31:30.292Z,98172.16
2022-10-19T19:34:00.358Z,98172.56
2022-10-19T19:36:27.228Z,98177.59
2022-10-19T19:38:59.215Z,98178.41
2022-10-19T19:41:25.847Z,98178.38
2022-10-19T19:43:58.511Z,98173.31
2022-10-19T19:46:25.601Z,98177.25
2022-10-19T19:49:01.596Z,98171.41
2022-10-19T19:51:33.894Z,98182.31
2022-10-19T19:54:00.441Z,98163.25
2022-10-19T19:56:28.887Z,98165.19
2022-10-19T19:59:00.055Z,98171.47
2022-10-19T20:01:27.045Z,98180.06
2022-10-19T20:03:54.793Z,98169.16
2022-10-19T20:06:25.819Z,98168.38
2022-10-19T20:08:53.547Z,98177.78
2022-10-19T20:11:20.109Z,98167.63
2022-10-19T20:13:55.233Z,98176.63
2022-10-19T20:16:28.256Z,98172.75
2022-10-19T20:19:02.518Z,98175.88
2022-10-19T20:21:29.100Z,98164.97
2022-10-19T20:23:55.868Z,98172.38
2022-10-19T20:26:26.512Z,98166.56
2022-10-19T20:28:53.535Z,98166.19
2022-10-19T20:31:20.658Z,98159.56
2022-10-19T20:33:48.276Z,98149.50
2022-10-19T20:36:26.149Z,98156.16
2022-10-19T20:39:03.258Z,98149.94
2022-10-19T20:41:29.742Z,98152.31
2022-10-19T20:43:56.976Z,98148.41
2022-10-19T20:46:32.276Z,98145.34
2022-10-19T20:49:00.789Z,98141.06
2022-10-19T20:51:32.009Z,98141.09
2022-10-19T20:54:06.424Z,98142.25
2022-10-19T20:56:36.138Z,98141.84
2022-10-19T20:59:17.226Z,98145.38
2022-10-19T21:01:44.877Z,98131.41
2022-10-19T21:04:14.427Z,98130.25
2022-10-19T21:06:47.371Z,98131.03
2022-10-19T21:09:26.982Z,98133.78
2022-10-19T21:11:53.658Z,98131.84
2022-10-19T21:14:26.981Z,98133.78
2022-10-19T21:16:57.072Z,98130.69
2022-10-19T21:19:25.605Z,98129.19
2022-10-19T21:21:57.783Z,98126.81
2022-10-19T21:24:32.160Z,98135.38
2022-10-19T21:27:03.275Z,98131.91
2022-10-19T21:29:30.116Z,98132.69
2022-10-19T21:31:56.951Z,98137.75
2022-10-19T21:34:28.952Z,98141.66
2022-10-19T21:36:55.831Z,98127.63
2022-10-19T21:39:22.799Z,98137.00
2022-10-19T21:41:50.212Z,98129.22
2022-10-19T21:44:18.028Z,98130.00
2022-10-19T21:46:47.582Z,98130.41
2022-10-19T21:49:14.398Z,98136.25
2022-10-19T21:51:43.258Z,98128.88
2022-10-19T21:54:16.470Z,98127.72
2022-10-19T21:56:43.249Z,98126.56
2022-10-19T21:59:13.782Z,98134.69
2022-10-19T22:01:43.295Z,98130.03
2022-10-19T22:04:16.146Z,98131.22
2022-10-19T22:06:43.595Z,98135.53
2022-10-19T22:09:16.450Z,98119.56
2022-10-19T22:11:45.068Z,98111.41
2022-10-19T22:14:14.046Z,98103.63
2022-10-19T22:16:41.740Z,98105.97
2022-10-19T22:19:08.605Z,98104.03
2022-10-19T22:21:35.484Z,98107.50
2022-10-19T22:24:08.939Z,98090.00
2022-10-19T22:26:38.563Z,98097.41
2022-10-19T22:29:06.675Z,98093.53
2022-10-19T22:31:40.444Z,98082.63
2022-10-19T22:34:13.037Z,98089.63
2022-10-19T22:36:39.812Z,98091.59
2022-10-19T22:39:07.192Z,98088.88
2022-10-19T22:41:33.846Z,98091.19
2022-10-19T22:44:58.540Z,98082.63
2022-10-19T22:48:21.041Z,98085.78
2022-10-19T22:51:46.499Z,98087.31
2022-10-19T22:54:13.278Z,98093.56
2022-10-19T22:56:39.984Z,98097.06
2022-10-19T22:59:10.736Z,98099.41
2022-10-19T23:01:37.926Z,98092.38
2022-10-19T23:04:04.499Z,98095.09
2022-10-19T23:06:31.173Z,98095.50
2022-10-19T23:08:57.785Z,98077.19
2022-10-19T23:11:27.882Z,98069.81
2022-10-19T23:13:56.145Z,98078.78
2022-10-19T23:16:22.678Z,98067.13
2022-10-19T23:18:52.584Z,98060.47
2022-10-19T23:21:19.256Z,98063.22
2022-10-19T23:23:45.746Z,98059.31
2022-10-19T23:26:23.505Z,98060.09
2022-10-19T23:28:50.621Z,98058.16
2022-10-19T23:31:23.465Z,98048.03
2022-10-19T23:33:52.401Z,98044.13
2022-10-19T23:36:24.257Z,98041.41
2022-10-19T23:38:52.090Z,98039.50
2022-10-19T23:41:24.164Z,98051.53
2022-10-19T23:43:50.726Z,98045.69
2022-10-19T23:46:17.347Z,98034.78
2022-10-19T23:48:46.318Z,98027.44
2022-10-19T23:51:15.705Z,98035.19
2022-10-19T23:53:45.077Z,98028.94
2022-10-19T23:56:30.744Z,98034.41
2022-10-19T23:58:57.699Z,98025.88
